sensor_id;sensor_type;location;lat;lon;timestamp;pressure;altitude;pressure_sealevel;temperature;humidity
27984;BME280;15317;50.360;8.726;2023-11-18T00:04:49;100413.03;;;0.60;100.00
27984;BME280;15317;50.360;8.726;2023-11-18T00:09:52;100412.25;;;0.58;100.00
27984;BME280;15317;50.360;8.726;2023-11-18T00:14:55;100416.88;;;0.54;100.00
27984;BME280;15317;50.360;8.726;2023-11-18T00:20:00;100416.84;;;0.73;100.00
27984;BME280;15317;50.360;8.726;2023-11-18T00:25:05;100425.66;;;0.75;100.00
27984;BME280;15317;50.360;8.726;2023-11-18T00:30:10;100403.22;;;0.60;100.00
27984;BME280;15317;50.360;8.726;2023-11-18T00:35:15;100403.78;;;0.48;100.00
27984;BME280;15317;50.360;8.726;2023-11-18T00:40:18;100420.34;;;0.37;100.00
27984;BME280;15317;50.360;8.726;2023-11-18T00:45:21;100427.00;;;0.48;100.00
27984;BME280;15317;50.360;8.726;2023-11-18T00:50:26;100442.88;;;0.51;100.00
27984;BME280;15317;50.360;8.726;2023-11-18T00:55:30;100443.31;;;0.60;100.00
27984;BME280;15317;50.360;8.726;2023-11-18T01:00:33;100451.75;;;0.70;100.00
27984;BME280;15317;50.360;8.726;2023-11-18T01:05:40;100446.19;;;0.74;100.00
27984;BME280;15317;50.360;8.726;2023-11-18T01:10:43;100454.16;;;0.93;100.00
27984;BME280;15317;50.360;8.726;2023-11-18T01:15:48;100458.28;;;1.00;100.00
27984;BME280;15317;50.360;8.726;2023-11-18T01:20:53;100450.50;;;1.13;100.00
27984;BME280;15317;50.360;8.726;2023-11-18T01:25:56;100467.59;;;1.28;100.00
27984;BME280;15317;50.360;8.726;2023-11-18T01:31:00;100462.81;;;1.34;100.00
27984;BME280;15317;50.360;8.726;2023-11-18T01:36:06;100449.72;;;1.45;100.00
27984;BME280;15317;50.360;8.726;2023-11-18T01:41:10;100460.28;;;1.48;100.00
27984;BME280;15317;50.360;8.726;2023-11-18T01:46:14;100460.97;;;1.52;100.00
27984;BME280;15317;50.360;8.726;2023-11-18T01:51:21;100448.06;;;1.60;100.00
27984;BME280;15317;50.360;8.726;2023-11-18T01:56:26;100457.22;;;1.56;100.00
27984;BME280;15317;50.360;8.726;2023-11-18T02:01:30;100464.97;;;1.43;100.00
27984;BME280;15317;50.360;8.726;2023-11-18T02:06:34;100471.53;;;1.55;100.00
27984;BME280;15317;50.360;8.726;2023-11-18T02:11:43;100474.84;;;1.60;100.00
27984;BME280;15317;50.360;8.726;2023-11-18T02:16:49;100469.00;;;1.52;100.00
27984;BME280;15317;50.360;8.726;2023-11-18T02:21:54;100475.47;;;1.65;100.00
27984;BME280;15317;50.360;8.726;2023-11-18T02:27:00;100469.81;;;1.54;100.00
27984;BME280;15317;50.360;8.726;2023-11-18T02:32:11;100481.53;;;1.51;100.00
27984;BME280;15317;50.360;8.726;2023-11-18T02:37:18;100489.06;;;1.43;100.00
27984;BME280;15317;50.360;8.726;2023-11-18T02:42:23;100475.78;;;1.42;100.00
27984;BME280;15317;50.360;8.726;2023-11-18T02:47:28;100476.09;;;1.36;100.00
27984;BME280;15317;50.360;8.726;2023-11-18T02:52:32;100463.34;;;1.41;100.00
27984;BME280;15317;50.360;8.726;2023-11-18T02:57:38;100468.69;;;1.41;100.00
27984;BME280;15317;50.360;8.726;2023-11-18T03:02:41;100452.97;;;1.35;100.00
27984;BME280;15317;50.360;8.726;2023-11-18T03:07:45;100448.63;;;1.32;100.00
27984;BME280;15317;50.360;8.726;2023-11-18T03:12:53;100446.88;;;1.31;100.00
27984;BME280;15317;50.360;8.726;2023-11-18T03:17:57;100456.41;;;1.37;100.00
27984;BME280;15317;50.360;8.726;2023-11-18T03:23:00;100459.41;;;1.31;100.00
27984;BME280;15317;50.360;8.726;2023-11-18T03:28:05;100453.25;;;1.11;100.00
27984;BME280;15317;50.360;8.726;2023-11-18T03:33:09;100445.84;;;0.99;100.00
27984;BME280;15317;50.360;8.726;2023-11-18T03:38:13;100439.19;;;0.89;100.00
27984;BME280;15317;50.360;8.726;2023-11-18T03:43:18;100447.00;;;0.94;100.00
27984;BME280;15317;50.360;8.726;2023-11-18T03:48:22;100455.03;;;0.94;100.00
27984;BME280;15317;50.360;8.726;2023-11-18T03:53:25;100453.97;;;0.79;100.00
27984;BME280;15317;50.360;8.726;2023-11-18T03:58:30;100443.59;;;0.73;100.00
27984;BME280;15317;50.360;8.726;2023-11-18T04:03:34;100443.41;;;0.76;100.00
27984;BME280;15317;50.360;8.726;2023-11-18T04:08:38;100440.09;;;0.71;100.00
27984;BME280;15317;50.360;8.726;2023-11-18T04:13:43;100433.75;;;0.73;100.00
27984;BME280;15317;50.360;8.726;2023-11-18T04:18:46;100439.81;;;0.77;100.00
27984;BME280;15317;50.360;8.726;2023-11-18T04:23:50;100423.63;;;0.80;100.00
27984;BME280;15317;50.360;8.726;2023-11-18T04:28:54;100410.38;;;0.77;100.00
27984;BME280;15317;50.360;8.726;2023-11-18T04:33:58;100417.72;;;0.73;100.00
27984;BME280;15317;50.360;8.726;2023-11-18T04:39:01;100418.59;;;0.74;100.00
27984;BME280;15317;50.360;8.726;2023-11-18T04:44:06;100431.66;;;0.80;100.00
27984;BME280;15317;50.360;8.726;2023-11-18T04:49:09;100444.28;;;0.76;100.00
27984;BME280;15317;50.360;8.726;2023-11-18T04:54:13;100450.81;;;0.71;100.00
27984;BME280;15317;50.360;8.726;2023-11-18T04:59:18;100450.50;;;0.77;100.00
27984;BME280;15317;50.360;8.726;2023-11-18T05:04:21;100453.69;;;0.85;100.00
27984;BME280;15317;50.360;8.726;2023-11-18T05:09:24;100441.50;;;0.97;100.00
27984;BME280;15317;50.360;8.726;2023-11-18T05:14:29;100423.50;;;1.00;100.00
27984;BME280;15317;50.360;8.726;2023-11-18T05:19:34;100433.84;;;0.89;100.00
27984;BME280;15317;50.360;8.726;2023-11-18T05:24:37;100430.97;;;0.94;100.00
27984;BME280;15317;50.360;8.726;2023-11-18T05:29:46;100414.34;;;0.87;100.00
27984;BME280;15317;50.360;8.726;2023-11-18T05:34:56;100417.81;;;0.89;100.00
27984;BME280;15317;50.360;8.726;2023-11-18T05:40:00;100416.16;;;1.04;100.00
27984;BME280;15317;50.360;8.726;2023-11-18T05:45:10;100408.06;;;1.05;100.00
27984;BME280;15317;50.360;8.726;2023-11-18T05:50:20;100385.66;;;1.08;100.00
27984;BME280;15317;50.360;8.726;2023-11-18T05:55:23;100381.94;;;1.10;100.00
27984;BME280;15317;50.360;8.726;2023-11-18T06:00:28;100378.25;;;1.13;100.00
27984;BME280;15317;50.360;8.726;2023-11-18T06:05:42;100381.09;;;1.27;100.00
27984;BME280;15317;50.360;8.726;2023-11-18T06:10:45;100376.19;;;1.18;100.00
27984;BME280;15317;50.360;8.726;2023-11-18T06:15:50;100380.53;;;1.21;100.00
27984;BME280;15317;50.360;8.726;2023-11-18T06:20:55;100404.16;;;1.30;100.00
27984;BME280;15317;50.360;8.726;2023-11-18T06:25:58;100399.56;;;1.32;100.00
27984;BME280;15317;50.360;8.726;2023-11-18T06:31:04;100400.28;;;1.35;100.00
27984;BME280;15317;50.360;8.726;2023-11-18T06:36:16;100412.56;;;1.39;100.00
27984;BME280;15317;50.360;8.726;2023-11-18T06:41:21;100401.31;;;1.50;100.00
27984;BME280;15317;50.360;8.726;2023-11-18T06:46:31;100404.28;;;1.44;100.00
27984;BME280;15317;50.360;8.726;2023-11-18T06:51:36;100412.03;;;1.50;100.00
27984;BME280;15317;50.360;8.726;2023-11-18T06:56:41;100411.44;;;1.43;100.00
27984;BME280;15317;50.360;8.726;2023-11-18T07:01:47;100404.13;;;1.47;100.00
27984;BME280;15317;50.360;8.726;2023-11-18T07:06:51;100398.44;;;1.53;100.00
27984;BME280;15317;50.360;8.726;2023-11-18T07:11:54;100406.97;;;1.61;100.00
27984;BME280;15317;50.360;8.726;2023-11-18T07:16:59;100398.75;;;1.64;100.00
27984;BME280;15317;50.360;8.726;2023-11-18T07:22:02;100389.00;;;1.63;100.00
27984;BME280;15317;50.360;8.726;2023-11-18T07:27:08;100383.19;;;1.55;100.00
27984;BME280;15317;50.360;8.726;2023-11-18T07:32:14;100389.69;;;1.67;100.00
27984;BME280;15317;50.360;8.726;2023-11-18T07:37:17;100412.31;;;1.61;100.00
27984;BME280;15317;50.360;8.726;2023-11-18T07:42:21;100424.75;;;1.62;100.00
27984;BME280;15317;50.360;8.726;2023-11-18T07:47:26;100420.31;;;1.78;100.00
27984;BME280;15317;50.360;8.726;2023-11-18T07:52:30;100418.66;;;1.76;100.00
27984;BME280;15317;50.360;8.726;2023-11-18T07:57:33;100439.22;;;1.75;100.00
27984;BME280;15317;50.360;8.726;2023-11-18T08:02:39;100442.59;;;1.79;100.00
27984;BME280;15317;50.360;8.726;2023-11-18T08:07:42;100432.94;;;1.76;100.00
27984;BME280;15317;50.360;8.726;2023-11-18T08:12:47;100420.41;;;1.77;100.00
27984;BME280;15317;50.360;8.726;2023-11-18T08:17:52;100427.25;;;1.82;100.00
27984;BME280;15317;50.360;8.726;2023-11-18T08:22:55;100425.44;;;1.98;100.00
27984;BME280;15317;50.360;8.726;2023-11-18T08:27:59;100425.16;;;2.05;100.00
27984;BME280;15317;50.360;8.726;2023-11-18T08:33:04;100411.03;;;2.01;100.00
27984;BME280;15317;50.360;8.726;2023-11-18T08:38:10;100415.13;;;2.08;100.00
27984;BME280;15317;50.360;8.726;2023-11-18T08:43:14;100410.88;;;2.20;100.00
27984;BME280;15317;50.360;8.726;2023-11-18T08:48:20;100407.19;;;2.38;100.00
27984;BME280;15317;50.360;8.726;2023-11-18T08:53:25;100405.13;;;2.43;100.00
27984;BME280;15317;50.360;8.726;2023-11-18T08:58:29;100382.88;;;2.57;100.00
27984;BME280;15317;50.360;8.726;2023-11-18T09:03:37;100400.63;;;2.59;100.00
27984;BME280;15317;50.360;8.726;2023-11-18T09:08:46;100391.00;;;2.55;100.00
27984;BME280;15317;50.360;8.726;2023-11-18T09:13:56;100399.47;;;2.63;100.00
27984;BME280;15317;50.360;8.726;2023-11-18T09:19:04;100403.88;;;2.80;100.00
27984;BME280;15317;50.360;8.726;2023-11-18T09:24:08;100411.31;;;2.91;100.00
27984;BME280;15317;50.360;8.726;2023-11-18T09:29:14;100399.28;;;2.98;100.00
27984;BME280;15317;50.360;8.726;2023-11-18T09:34:21;100409.81;;;3.01;100.00
27984;BME280;15317;50.360;8.726;2023-11-18T09:39:29;100410.31;;;3.07;100.00
27984;BME280;15317;50.360;8.726;2023-11-18T09:44:40;100412.75;;;2.96;100.00
27984;BME280;15317;50.360;8.726;2023-11-18T09:49:49;100400.50;;;2.92;100.00
27984;BME280;15317;50.360;8.726;2023-11-18T09:55:02;100403.41;;;3.03;100.00
27984;BME280;15317;50.360;8.726;2023-11-18T10:00:07;100407.75;;;3.06;100.00
27984;BME280;15317;50.360;8.726;2023-11-18T10:05:26;100394.53;;;3.17;100.00
27984;BME280;15317;50.360;8.726;2023-11-18T10:10:30;100379.63;;;3.27;100.00
27984;BME280;15317;50.360;8.726;2023-11-18T10:15:39;100384.78;;;3.30;100.00
27984;BME280;15317;50.360;8.726;2023-11-18T10:20:45;100382.88;;;3.32;100.00
27984;BME280;15317;50.360;8.726;2023-11-18T10:25:52;100391.16;;;3.43;100.00
27984;BME280;15317;50.360;8.726;2023-11-18T10:30:56;100373.53;;;3.53;100.00
27984;BME280;15317;50.360;8.726;2023-11-18T10:36:03;100366.44;;;3.67;100.00
27984;BME280;15317;50.360;8.726;2023-11-18T10:41:09;100359.66;;;3.75;100.00
27984;BME280;15317;50.360;8.726;2023-11-18T10:46:15;100359.81;;;3.86;100.00
27984;BME280;15317;50.360;8.726;2023-11-18T10:51:20;100352.72;;;4.00;100.00
27984;BME280;15317;50.360;8.726;2023-11-18T10:56:29;100343.94;;;4.10;100.00
27984;BME280;15317;50.360;8.726;2023-11-18T11:01:36;100329.63;;;4.10;100.00
27984;BME280;15317;50.360;8.726;2023-11-18T11:06:47;100331.75;;;4.19;100.00
27984;BME280;15317;50.360;8.726;2023-11-18T11:11:55;100325.72;;;4.15;100.00
27984;BME280;15317;50.360;8.726;2023-11-18T11:17:05;100313.50;;;4.10;100.00
27984;BME280;15317;50.360;8.726;2023-11-18T11:22:18;100303.22;;;4.16;100.00
27984;BME280;15317;50.360;8.726;2023-11-18T11:27:25;100298.34;;;4.23;100.00
27984;BME280;15317;50.360;8.726;2023-11-18T11:32:42;100289.09;;;4.27;100.00
27984;BME280;15317;50.360;8.726;2023-11-18T11:37:49;100270.03;;;4.30;100.00
27984;BME280;15317;50.360;8.726;2023-11-18T11:42:54;100255.19;;;4.24;100.00
27984;BME280;15317;50.360;8.726;2023-11-18T11:48:00;100239.09;;;4.37;100.00
27984;BME280;15317;50.360;8.726;2023-11-18T11:53:23;100228.16;;;4.40;100.00
27984;BME280;15317;50.360;8.726;2023-11-18T11:58:29;100214.38;;;4.45;100.00
27984;BME280;15317;50.360;8.726;2023-11-18T12:03:33;100226.69;;;4.49;100.00
27984;BME280;15317;50.360;8.726;2023-11-18T12:08:46;100205.88;;;4.51;100.00
27984;BME280;15317;50.360;8.726;2023-11-18T12:14:00;100204.94;;;4.52;100.00
27984;BME280;15317;50.360;8.726;2023-11-18T12:19:30;100175.91;;;4.57;100.00
27984;BME280;15317;50.360;8.726;2023-11-18T12:24:35;100176.22;;;4.65;100.00
27984;BME280;15317;50.360;8.726;2023-11-18T12:29:41;100178.16;;;4.63;100.00
27984;BME280;15317;50.360;8.726;2023-11-18T12:34:51;100186.56;;;4.71;100.00
27984;BME280;15317;50.360;8.726;2023-11-18T12:40:36;100177.75;;;4.82;100.00
27984;BME280;15317;50.360;8.726;2023-11-18T12:46:25;100168.38;;;4.87;100.00
27984;BME280;15317;50.360;8.726;2023-11-18T12:51:39;100150.50;;;4.86;100.00
27984;BME280;15317;50.360;8.726;2023-11-18T12:56:43;100158.38;;;4.89;100.00
27984;BME280;15317;50.360;8.726;2023-11-18T13:01:50;100145.56;;;4.93;100.00
27984;BME280;15317;50.360;8.726;2023-11-18T13:06:56;100133.72;;;4.95;100.00
27984;BME280;15317;50.360;8.726;2023-11-18T13:12:03;100122.94;;;4.95;100.00
27984;BME280;15317;50.360;8.726;2023-11-18T13:17:09;100116.50;;;4.98;100.00
27984;BME280;15317;50.360;8.726;2023-11-18T13:22:14;100112.59;;;5.02;100.00
27984;BME280;15317;50.360;8.726;2023-11-18T13:27:19;100111.28;;;5.07;100.00
27984;BME280;15317;50.360;8.726;2023-11-18T13:32:23;100125.53;;;5.09;100.00
27984;BME280;15317;50.360;8.726;2023-11-18T13:37:28;100115.63;;;5.10;100.00
27984;BME280;15317;50.360;8.726;2023-11-18T13:42:33;100105.25;;;5.16;100.00
27984;BME280;15317;50.360;8.726;2023-11-18T13:47:39;100107.09;;;5.16;100.00
27984;BME280;15317;50.360;8.726;2023-11-18T13:52:47;100087.16;;;5.19;100.00
27984;BME280;15317;50.360;8.726;2023-11-18T13:57:53;100079.81;;;5.21;100.00
27984;BME280;15317;50.360;8.726;2023-11-18T14:02:58;100089.41;;;5.25;100.00
27984;BME280;15317;50.360;8.726;2023-11-18T14:08:03;100077.66;;;5.26;100.00
27984;BME280;15317;50.360;8.726;2023-11-18T14:13:14;100084.03;;;5.25;100.00
27984;BME280;15317;50.360;8.726;2023-11-18T14:18:19;100048.00;;;5.26;100.00
27984;BME280;15317;50.360;8.726;2023-11-18T14:23:23;100031.75;;;5.27;100.00
27984;BME280;15317;50.360;8.726;2023-11-18T14:28:28;100011.06;;;5.28;100.00
27984;BME280;15317;50.360;8.726;2023-11-18T14:33:31;100027.75;;;5.33;100.00
27984;BME280;15317;50.360;8.726;2023-11-18T14:38:35;100064.47;;;5.34;100.00
27984;BME280;15317;50.360;8.726;2023-11-18T14:43:40;100042.72;;;5.37;100.00
27984;BME280;15317;50.360;8.726;2023-11-18T14:48:43;100029.25;;;5.37;100.00
27984;BME280;15317;50.360;8.726;2023-11-18T14:53:47;100026.31;;;5.40;100.00
27984;BME280;15317;50.360;8.726;2023-11-18T14:58:52;100010.91;;;5.42;100.00
27984;BME280;15317;50.360;8.726;2023-11-18T15:03:55;100001.59;;;5.46;100.00
27984;BME280;15317;50.360;8.726;2023-11-18T15:08:59;99998.69;;;5.49;100.00
27984;BME280;15317;50.360;8.726;2023-11-18T15:14:06;99984.88;;;5.53;100.00
27984;BME280;15317;50.360;8.726;2023-11-18T15:19:13;99977.53;;;5.55;100.00
27984;BME280;15317;50.360;8.726;2023-11-18T15:24:17;99957.44;;;5.60;100.00
27984;BME280;15317;50.360;8.726;2023-11-18T15:29:24;99942.78;;;5.64;100.00
27984;BME280;15317;50.360;8.726;2023-11-18T15:34:33;99950.50;;;5.68;100.00
27984;BME280;15317;50.360;8.726;2023-11-18T15:39:36;99951.25;;;5.70;100.00
27984;BME280;15317;50.360;8.726;2023-11-18T15:44:42;99933.28;;;5.82;100.00
27984;BME280;15317;50.360;8.726;2023-11-18T15:49:45;99911.16;;;5.89;100.00
27984;BME280;15317;50.360;8.726;2023-11-18T15:54:48;99891.28;;;5.90;100.00
27984;BME280;15317;50.360;8.726;2023-11-18T15:59:52;99892.03;;;5.92;100.00
27984;BME280;15317;50.360;8.726;2023-11-18T16:04:55;99889.56;;;5.89;100.00
27984;BME280;15317;50.360;8.726;2023-11-18T16:09:59;99877.81;;;5.90;100.00
27984;BME280;15317;50.360;8.726;2023-11-18T16:15:04;99860.66;;;5.91;100.00
27984;BME280;15317;50.360;8.726;2023-11-18T16:20:10;99867.16;;;5.89;100.00
27984;BME280;15317;50.360;8.726;2023-11-18T16:25:21;99863.47;;;5.90;100.00
27984;BME280;15317;50.360;8.726;2023-11-18T16:30:26;99852.59;;;5.91;100.00
27984;BME280;15317;50.360;8.726;2023-11-18T16:35:32;99837.16;;;5.93;100.00
27984;BME280;15317;50.360;8.726;2023-11-18T16:40:35;99813.88;;;5.92;100.00
27984;BME280;15317;50.360;8.726;2023-11-18T16:45:40;99787.63;;;5.94;100.00
27984;BME280;15317;50.360;8.726;2023-11-18T16:50:43;99765.56;;;5.89;100.00
27984;BME280;15317;50.360;8.726;2023-11-18T16:55:47;99755.03;;;5.86;100.00
27984;BME280;15317;50.360;8.726;2023-11-18T17:00:52;99743.25;;;5.87;100.00
27984;BME280;15317;50.360;8.726;2023-11-18T17:05:55;99741.66;;;5.85;100.00
27984;BME280;15317;50.360;8.726;2023-11-18T17:10:58;99745.22;;;5.85;100.00
27984;BME280;15317;50.360;8.726;2023-11-18T17:16:04;99753.06;;;5.88;100.00
27984;BME280;15317;50.360;8.726;2023-11-18T17:21:08;99753.31;;;5.85;100.00
27984;BME280;15317;50.360;8.726;2023-11-18T17:26:11;99760.41;;;5.86;100.00
27984;BME280;15317;50.360;8.726;2023-11-18T17:31:16;99743.03;;;5.90;100.00
27984;BME280;15317;50.360;8.726;2023-11-18T17:36:20;99746.19;;;5.84;100.00
27984;BME280;15317;50.360;8.726;2023-11-18T17:41:25;99721.69;;;5.87;100.00
27984;BME280;15317;50.360;8.726;2023-11-18T17:46:29;99705.00;;;5.82;100.00
27984;BME280;15317;50.360;8.726;2023-11-18T17:51:32;99707.72;;;5.82;100.00
27984;BME280;15317;50.360;8.726;2023-11-18T17:56:35;99721.44;;;5.79;100.00
27984;BME280;15317;50.360;8.726;2023-11-18T18:01:40;99701.84;;;5.77;100.00
27984;BME280;15317;50.360;8.726;2023-11-18T18:06:44;99700.97;;;5.77;100.00
27984;BME280;15317;50.360;8.726;2023-11-18T18:11:47;99675.97;;;5.75;100.00
27984;BME280;15317;50.360;8.726;2023-11-18T18:16:52;99673.06;;;5.78;100.00
27984;BME280;15317;50.360;8.726;2023-11-18T18:21:56;99673.19;;;5.76;100.00
27984;BME280;15317;50.360;8.726;2023-11-18T18:26:59;99675.13;;;5.74;100.00
27984;BME280;15317;50.360;8.726;2023-11-18T18:32:04;99653.34;;;5.77;100.00
27984;BME280;15317;50.360;8.726;2023-11-18T18:37:10;99660.69;;;5.75;100.00
27984;BME280;15317;50.360;8.726;2023-11-18T18:42:14;99648.44;;;5.71;100.00
27984;BME280;15317;50.360;8.726;2023-11-18T18:47:18;99641.56;;;5.78;100.00
27984;BME280;15317;50.360;8.726;2023-11-18T18:52:23;99634.00;;;5.72;100.00
27984;BME280;15317;50.360;8.726;2023-11-18T18:57:26;99634.34;;;5.79;100.00
27984;BME280;15317;50.360;8.726;2023-11-18T19:02:31;99608.03;;;5.71;100.00
27984;BME280;15317;50.360;8.726;2023-11-18T19:07:35;99592.31;;;5.76;100.00
27984;BME280;15317;50.360;8.726;2023-11-18T19:12:38;99599.09;;;5.71;100.00
27984;BME280;15317;50.360;8.726;2023-11-18T19:17:43;99606.78;;;5.75;100.00
27984;BME280;15317;50.360;8.726;2023-11-18T19:22:47;99596.00;;;5.75;100.00
27984;BME280;15317;50.360;8.726;2023-11-18T19:27:50;99596.00;;;5.75;100.00
27984;BME280;15317;50.360;8.726;2023-11-18T19:32:56;99580.69;;;5.76;100.00
27984;BME280;15317;50.360;8.726;2023-11-18T19:37:59;99591.47;;;5.76;100.00
27984;BME280;15317;50.360;8.726;2023-11-18T19:43:05;99562.69;;;5.76;100.00
27984;BME280;15317;50.360;8.726;2023-11-18T19:48:10;99542.94;;;5.76;100.00
27984;BME280;15317;50.360;8.726;2023-11-18T19:53:15;99534.63;;;5.79;100.00
27984;BME280;15317;50.360;8.726;2023-11-18T19:58:19;99537.84;;;5.73;100.00
27984;BME280;15317;50.360;8.726;2023-11-18T20:03:25;99529.88;;;5.71;100.00
27984;BME280;15317;50.360;8.726;2023-11-18T20:08:29;99523.22;;;5.75;100.00
27984;BME280;15317;50.360;8.726;2023-11-18T20:13:32;99536.81;;;5.74;100.00
27984;BME280;15317;50.360;8.726;2023-11-18T20:18:38;99534.47;;;5.80;100.00
27984;BME280;15317;50.360;8.726;2023-11-18T20:23:42;99534.47;;;5.80;100.00
27984;BME280;15317;50.360;8.726;2023-11-18T20:28:45;99531.94;;;5.79;100.00
27984;BME280;15317;50.360;8.726;2023-11-18T20:33:49;99524.94;;;5.76;100.00
27984;BME280;15317;50.360;8.726;2023-11-18T20:38:53;99512.22;;;5.78;100.00
27984;BME280;15317;50.360;8.726;2023-11-18T20:43:56;99506.06;;;5.76;100.00
27984;BME280;15317;50.360;8.726;2023-11-18T20:49:01;99499.72;;;5.77;100.00
27984;BME280;15317;50.360;8.726;2023-11-18T20:54:04;99500.44;;;5.79;100.00
27984;BME280;15317;50.360;8.726;2023-11-18T20:59:09;99482.03;;;5.84;100.00
27984;BME280;15317;50.360;8.726;2023-11-18T21:04:13;99473.72;;;5.87;100.00
27984;BME280;15317;50.360;8.726;2023-11-18T21:09:17;99472.72;;;5.88;100.00
27984;BME280;15317;50.360;8.726;2023-11-18T21:14:21;99465.13;;;5.93;100.00
27984;BME280;15317;50.360;8.726;2023-11-18T21:19:29;99453.19;;;5.96;100.00
27984;BME280;15317;50.360;8.726;2023-11-18T21:24:32;99444.72;;;6.01;100.00
27984;BME280;15317;50.360;8.726;2023-11-18T21:29:36;99430.25;;;6.02;100.00
27984;BME280;15317;50.360;8.726;2023-11-18T21:34:41;99429.47;;;6.11;100.00
27984;BME280;15317;50.360;8.726;2023-11-18T21:39:45;99413.53;;;6.08;100.00
27984;BME280;15317;50.360;8.726;2023-11-18T21:44:48;99415.56;;;6.15;100.00
27984;BME280;15317;50.360;8.726;2023-11-18T21:49:53;99411.16;;;6.14;100.00
27984;BME280;15317;50.360;8.726;2023-11-18T21:54:57;99407.63;;;6.14;100.00
27984;BME280;15317;50.360;8.726;2023-11-18T22:00:00;99386.22;;;6.22;100.00
27984;BME280;15317;50.360;8.726;2023-11-18T22:05:06;99378.41;;;6.19;100.00
27984;BME280;15317;50.360;8.726;2023-11-18T22:10:11;99379.28;;;6.19;100.00
27984;BME280;15317;50.360;8.726;2023-11-18T22:15:15;99384.97;;;6.26;100.00
27984;BME280;15317;50.360;8.726;2023-11-18T22:20:20;99368.94;;;6.24;100.00
27984;BME280;15317;50.360;8.726;2023-11-18T22:25:27;99350.78;;;6.26;100.00
27984;BME280;15317;50.360;8.726;2023-11-18T22:30:30;99345.69;;;6.33;100.00
27984;BME280;15317;50.360;8.726;2023-11-18T22:35:35;99331.47;;;6.31;100.00
27984;BME280;15317;50.360;8.726;2023-11-18T22:40:39;99319.81;;;6.30;100.00
27984;BME280;15317;50.360;8.726;2023-11-18T22:45:43;99322.84;;;6.37;100.00
27984;BME280;15317;50.360;8.726;2023-11-18T22:50:49;99312.03;;;6.37;100.00
27984;BME280;15317;50.360;8.726;2023-11-18T22:55:53;99317.44;;;6.37;100.00
27984;BME280;15317;50.360;8.726;2023-11-18T23:00:56;99303.69;;;6.40;100.00
27984;BME280;15317;50.360;8.726;2023-11-18T23:06:02;99299.28;;;6.39;100.00
27984;BME280;15317;50.360;8.726;2023-11-18T23:11:10;99292.22;;;6.48;100.00
27984;BME280;15317;50.360;8.726;2023-11-18T23:16:14;99307.25;;;6.50;100.00
27984;BME280;15317;50.360;8.726;2023-11-18T23:21:18;99297.91;;;6.54;100.00
27984;BME280;15317;50.360;8.726;2023-11-18T23:26:22;99315.22;;;6.52;100.00
27984;BME280;15317;50.360;8.726;2023-11-18T23:31:25;99317.47;;;6.56;100.00
27984;BME280;15317;50.360;8.726;2023-11-18T23:36:31;99293.34;;;6.55;100.00
27984;BME280;15317;50.360;8.726;2023-11-18T23:41:34;99290.22;;;6.59;100.00
27984;BME280;15317;50.360;8.726;2023-11-18T23:46:37;99286.53;;;6.60;100.00
27984;BME280;15317;50.360;8.726;2023-11-18T23:51:42;99284.84;;;6.59;100.00
27984;BME280;15317;50.360;8.726;2023-11-18T23:56:45;99263.66;;;6.64;100.00
